createdAt,value
2022-08-19T00:01:57.746Z,13.50
2022-08-19T00:04:37.685Z,12.50
2022-08-19T00:07:08.145Z,13.70
2022-08-19T00:09:35.961Z,16.90
2022-08-19T00:12:04.329Z,14.50
2022-08-19T00:14:32.663Z,14.10
2022-08-19T00:17:01.024Z,12.40
2022-08-19T00:19:28.119Z,12.50
2022-08-19T00:21:57.320Z,16.00
2022-08-19T00:24:25.500Z,13.30
2022-08-19T00:26:53.449Z,14.30
2022-08-19T00:29:26.036Z,15.00
2022-08-19T00:31:55.818Z,13.10
2022-08-19T00:34:24.387Z,14.90
2022-08-19T00:36:51.453Z,14.40
2022-08-19T00:39:19.313Z,14.90
2022-08-19T00:41:51.612Z,14.40
2022-08-19T00:44:28.132Z,15.40
2022-08-19T00:47:00.087Z,14.00
2022-08-19T00:49:41.917Z,14.50
2022-08-19T00:52:19.675Z,14.20
2022-08-19T00:54:52.404Z,13.90
2022-08-19T00:57:31.841Z,14.10
2022-08-19T01:00:03.457Z,14.80
2022-08-19T01:02:32.519Z,14.70
2022-08-19T01:05:04.351Z,15.50
2022-08-19T01:07:37.581Z,13.30
2022-08-19T01:10:11.452Z,12.10
2022-08-19T01:12:40.614Z,13.90
2022-08-19T01:15:12.453Z,15.80
2022-08-19T01:17:41.203Z,14.90
2022-08-19T01:20:20.260Z,17.10
2022-08-19T01:22:59.881Z,15.30
2022-08-19T01:25:42.198Z,13.30
2022-08-19T01:28:10.824Z,15.10
2022-08-19T01:30:38.841Z,14.90
2022-08-19T01:33:06.765Z,14.20
2022-08-19T01:35:38.072Z,16.10
2022-08-19T01:38:11.821Z,15.20
2022-08-19T01:40:41.023Z,13.60
2022-08-19T01:43:08.896Z,15.30
2022-08-19T01:45:39.946Z,15.80
2022-08-19T01:48:08.768Z,15.50
2022-08-19T01:50:36.961Z,16.60
2022-08-19T01:53:08.845Z,13.80
2022-08-19T01:55:41.305Z,18.70
2022-08-19T01:58:22.686Z,20.20
2022-08-19T02:00:50.206Z,15.10
2022-08-19T02:03:17.846Z,15.00
2022-08-19T02:05:46.801Z,24.20
2022-08-19T02:08:14.032Z,21.90
2022-08-19T02:10:45.062Z,16.80
2022-08-19T02:13:14.790Z,17.80
2022-08-19T02:15:42.022Z,15.30
2022-08-19T02:18:09.566Z,15.20
2022-08-19T02:20:38.558Z,17.00
2022-08-19T02:23:13.939Z,16.10
2022-08-19T02:25:45.713Z,18.20
2022-08-19T02:28:17.927Z,15.80
2022-08-19T02:30:47.564Z,15.40
2022-08-19T02:33:15.136Z,16.70
2022-08-19T02:35:47.938Z,15.40
2022-08-19T02:38:28.593Z,17.00
2022-08-19T02:41:04.317Z,16.80
2022-08-19T02:43:37.532Z,19.30
2022-08-19T02:46:21.939Z,16.40
2022-08-19T02:48:55.243Z,15.80
2022-08-19T02:51:30.909Z,14.30
2022-08-19T02:53:59.998Z,16.70
2022-08-19T02:56:28.397Z,14.70
2022-08-19T02:58:56.549Z,15.80
2022-08-19T03:01:29.220Z,18.50
2022-08-19T03:04:00.526Z,18.10
2022-08-19T03:06:28.937Z,16.20
2022-08-19T03:08:56.859Z,17.50
2022-08-19T03:11:31.766Z,15.80
2022-08-19T03:14:01.390Z,17.90
2022-08-19T03:16:33.545Z,16.60
2022-08-19T03:19:02.993Z,19.00
2022-08-19T03:21:34.382Z,16.50
2022-08-19T03:24:09.796Z,17.30
2022-08-19T03:26:46.344Z,18.80
2022-08-19T03:29:14.215Z,16.30
2022-08-19T03:31:52.262Z,16.30
2022-08-19T03:34:28.644Z,15.70
2022-08-19T03:36:59.190Z,16.00
2022-08-19T03:39:27.070Z,15.70
2022-08-19T03:42:32.609Z,15.10
2022-08-19T03:44:47.387Z,17.80
2022-08-19T03:47:17.412Z,13.90
2022-08-19T03:49:45.663Z,17.00
2022-08-19T03:52:13.160Z,16.30
2022-08-19T03:54:40.549Z,17.50
2022-08-19T03:57:10.075Z,18.60
2022-08-19T03:59:39.240Z,14.80
2022-08-19T04:02:14.456Z,16.90
2022-08-19T04:04:44.721Z,18.10
2022-08-19T04:07:16.893Z,17.00
2022-08-19T04:09:44.773Z,16.20
2022-08-19T04:12:11.984Z,14.20
2022-08-19T04:14:39.260Z,18.20
2022-08-19T04:17:06.749Z,17.10
2022-08-19T04:19:37.695Z,15.80
2022-08-19T04:22:06.728Z,15.60
2022-08-19T04:24:37.321Z,13.90
2022-08-19T04:27:07.163Z,14.90
2022-08-19T04:29:35.047Z,16.50
2022-08-19T04:32:09.430Z,15.10
2022-08-19T04:35:15.841Z,15.80
2022-08-19T04:37:35.519Z,15.90
2022-08-19T04:40:25.857Z,15.50
2022-08-19T04:42:54.587Z,14.30
2022-08-19T04:45:22.854Z,14.20
2022-08-19T04:47:58.171Z,15.40
2022-08-19T04:50:27.870Z,13.00
2022-08-19T04:52:57.678Z,12.90
2022-08-19T04:55:28.763Z,14.90
2022-08-19T04:57:56.104Z,16.50
2022-08-19T05:00:24.339Z,12.20
2022-08-19T05:02:51.692Z,12.60
2022-08-19T05:05:19.073Z,15.90
2022-08-19T05:07:46.457Z,13.50
2022-08-19T05:10:14.250Z,14.10
2022-08-19T05:12:41.547Z,13.00
2022-08-19T05:15:10.068Z,14.40
2022-08-19T05:17:38.957Z,13.60
2022-08-19T05:20:29.025Z,12.40
2022-08-19T05:22:56.160Z,13.30
2022-08-19T05:25:25.285Z,16.80
2022-08-19T05:27:52.462Z,16.40
2022-08-19T05:30:33.597Z,20.60
2022-08-19T05:33:07.620Z,22.00
2022-08-19T05:35:34.971Z,19.70
2022-08-19T05:38:42.581Z,16.30
2022-08-19T05:41:16.454Z,20.00
2022-08-19T05:43:46.931Z,17.10
2022-08-19T05:46:27.672Z,20.40
2022-08-19T05:48:57.624Z,14.50
2022-08-19T05:51:28.921Z,14.30
2022-08-19T05:53:56.536Z,13.50
2022-08-19T05:56:23.603Z,15.50
2022-08-19T05:58:50.899Z,14.70
2022-08-19T06:01:20.302Z,17.50
2022-08-19T06:03:48.728Z,15.70
2022-08-19T06:06:17.791Z,14.30
2022-08-19T06:08:51.198Z,14.40
2022-08-19T06:11:33.858Z,17.30
2022-08-19T06:14:10.081Z,19.40
2022-08-19T06:16:44.977Z,19.70
2022-08-19T06:19:18.662Z,19.80
2022-08-19T06:21:48.894Z,21.00
2022-08-19T06:24:21.372Z,19.50
2022-08-19T06:26:51.509Z,16.10
2022-08-19T06:29:24.829Z,17.40
2022-08-19T06:31:57.194Z,20.70
2022-08-19T06:34:28.333Z,18.10
2022-08-19T06:36:57.844Z,15.80
2022-08-19T06:39:29.546Z,16.50
2022-08-19T06:42:01.540Z,16.00
2022-08-19T06:44:42.619Z,11.50
2022-08-19T06:47:51.008Z,9.70
2022-08-19T06:51:42.434Z,10.60
2022-08-19T06:55:00.374Z,11.40
2022-08-19T06:57:37.095Z,12.00
2022-08-19T07:00:28.949Z,10.10
2022-08-19T07:03:03.031Z,9.90
2022-08-19T07:06:43.992Z,13.20
2022-08-19T07:10:17.383Z,13.80
2022-08-19T07:13:21.003Z,10.40
2022-08-19T07:31:46.817Z,12.40
2022-08-19T07:34:44.650Z,8.60
2022-08-19T07:37:33.413Z,11.30
2022-08-19T07:43:21.619Z,9.10
2022-08-19T07:47:48.758Z,10.90
2022-08-19T07:50:20.788Z,12.40
2022-08-19T07:53:24.327Z,11.60
2022-08-19T07:56:16.159Z,10.00
2022-08-19T07:59:27.338Z,10.50
2022-08-19T08:02:19.934Z,11.30
2022-08-19T08:05:58.161Z,12.20
2022-08-19T08:09:12.756Z,10.70
2022-08-19T08:12:34.958Z,13.00
2022-08-19T08:15:37.571Z,11.30
2022-08-19T08:19:20.393Z,10.60
2022-08-19T08:23:04.806Z,10.30
2022-08-19T08:26:57.844Z,12.30
2022-08-19T08:30:50.565Z,9.70
2022-08-19T08:34:18.993Z,11.90
2022-08-19T08:38:12.251Z,12.10
2022-08-19T08:42:32.579Z,13.20
2022-08-19T08:45:33.037Z,12.20
2022-08-19T08:49:31.298Z,14.90
2022-08-19T08:53:12.750Z,10.90
2022-08-19T08:56:40.944Z,11.30
2022-08-19T09:00:04.246Z,8.90
2022-08-19T09:07:57.345Z,12.60
2022-08-19T09:10:55.142Z,10.90
2022-08-19T09:14:50.227Z,11.10
2022-08-19T09:18:35.422Z,11.20
2022-08-19T09:21:43.881Z,9.20
2022-08-19T09:25:13.315Z,12.40
2022-08-19T09:28:26.973Z,10.70
2022-08-19T09:31:43.986Z,9.40
2022-08-19T09:34:37.930Z,9.60
2022-08-19T09:37:08.459Z,13.30
2022-08-19T09:39:39.551Z,9.60
2022-08-19T09:42:16.626Z,8.90
2022-08-19T09:44:50.184Z,10.60
2022-08-19T09:47:40.629Z,8.20
2022-08-19T09:50:11.642Z,10.80
2022-08-19T09:53:04.213Z,9.40
2022-08-19T09:55:56.773Z,8.80
2022-08-19T09:58:35.431Z,8.40
2022-08-19T10:01:05.590Z,9.40
2022-08-19T10:03:35.947Z,10.40
2022-08-19T10:06:14.890Z,12.10
2022-08-19T10:08:49.880Z,9.50
2022-08-19T10:11:27.387Z,9.50
2022-08-19T10:14:03.822Z,8.90
2022-08-19T10:17:01.433Z,9.20
2022-08-19T10:20:32.331Z,8.40
2022-08-19T10:24:06.533Z,9.60
2022-08-19T10:27:56.219Z,10.50
2022-08-19T10:32:00.534Z,10.20
2022-08-19T11:12:34.759Z,10.60
2022-08-19T11:16:38.121Z,8.40
2022-08-19T11:20:12.320Z,10.00
2022-08-19T11:23:32.477Z,10.70
2022-08-19T11:26:49.755Z,8.10
2022-08-19T11:54:32.682Z,9.50
2022-08-19T11:58:41.919Z,8.40
2022-08-19T12:14:47.807Z,7.90
2022-08-19T12:18:55.891Z,8.30
2022-08-19T12:22:47.690Z,9.80
2022-08-19T12:51:18.098Z,10.70
2022-08-19T12:55:26.581Z,10.80
2022-08-19T13:12:00.520Z,8.80
2022-08-19T13:28:10.815Z,9.30
2022-08-19T13:32:13.136Z,9.90
2022-08-19T13:36:31.024Z,8.50
2022-08-19T14:03:49.052Z,13.50
2022-08-19T14:07:37.256Z,11.80
2022-08-19T14:27:40.781Z,11.70
2022-08-19T14:31:30.730Z,11.80
2022-08-19T14:35:39.291Z,9.60
2022-08-19T14:51:56.123Z,10.70
2022-08-19T14:55:35.263Z,21.90
2022-08-19T14:59:37.555Z,11.20
2022-08-19T15:03:26.612Z,11.60
2022-08-19T15:15:34.692Z,11.20
2022-08-19T15:19:43.067Z,10.50
2022-08-19T15:23:34.101Z,13.70
2022-08-19T15:27:29.150Z,9.60
2022-08-19T15:30:42.341Z,11.70
2022-08-19T15:34:39.998Z,14.40
2022-08-19T15:53:58.023Z,8.30
2022-08-19T15:57:20.347Z,12.60
2022-08-19T16:01:27.630Z,10.20
2022-08-19T16:05:06.009Z,7.70
2022-08-19T16:09:13.263Z,9.50
2022-08-19T16:13:22.899Z,9.50
2022-08-19T16:28:49.727Z,11.30
2022-08-19T16:32:59.660Z,11.40
2022-08-19T16:49:53.298Z,16.50
2022-08-19T16:54:02.913Z,10.10
2022-08-19T17:10:14.003Z,12.10
2022-08-19T17:14:15.159Z,12.10
2022-08-19T17:17:06.823Z,16.30
2022-08-19T17:20:12.291Z,14.50
2022-08-19T17:23:14.635Z,13.40
2022-08-19T17:26:50.048Z,11.90
2022-08-19T17:29:54.159Z,10.00
2022-08-19T17:32:42.395Z,12.10
2022-08-19T17:35:10.350Z,12.80
2022-08-19T17:38:19.194Z,14.00
2022-08-19T17:40:50.642Z,12.40
2022-08-19T17:43:32.391Z,18.50
2022-08-19T17:46:23.091Z,12.80
2022-08-19T17:49:40.394Z,18.30
2022-08-19T17:52:28.463Z,19.40
2022-08-19T17:54:56.121Z,20.60
2022-08-19T17:57:23.159Z,20.30
2022-08-19T17:59:51.187Z,17.70
2022-08-19T18:02:21.856Z,20.30
2022-08-19T18:04:52.367Z,18.70
2022-08-19T18:07:22.212Z,18.10
2022-08-19T18:09:52.124Z,13.80
2022-08-19T18:12:29.717Z,15.10
2022-08-19T18:14:59.172Z,15.50
2022-08-19T18:17:26.180Z,13.10
2022-08-19T18:19:53.293Z,11.50
2022-08-19T18:22:29.327Z,11.70
2022-08-19T18:24:58.326Z,18.50
2022-08-19T18:27:28.799Z,12.90
2022-08-19T18:30:07.064Z,14.00
2022-08-19T18:32:54.507Z,11.50
2022-08-19T18:35:54.336Z,11.40
2022-08-19T18:38:49.917Z,14.30
2022-08-19T18:42:00.444Z,7.50
2022-08-19T18:44:57.950Z,9.80
2022-08-19T18:47:54.824Z,12.80
2022-08-19T18:50:21.818Z,11.50
2022-08-19T18:52:48.822Z,12.80
2022-08-19T18:55:19.162Z,11.90
2022-08-19T18:57:52.633Z,10.40
2022-08-19T19:00:21.190Z,11.40
2022-08-19T19:03:17.426Z,9.80
2022-08-19T19:05:54.302Z,9.50
2022-08-19T19:08:28.300Z,8.00
2022-08-19T19:11:17.785Z,11.40
2022-08-19T19:14:19.133Z,11.50
2022-08-19T19:16:53.967Z,12.50
2022-08-19T19:19:33.290Z,12.10
2022-08-19T19:22:07.240Z,12.80
2022-08-19T19:24:46.350Z,14.40
2022-08-19T19:27:21.827Z,14.40
2022-08-19T19:29:52.396Z,10.20
2022-08-19T19:32:26.401Z,15.00
2022-08-19T19:34:59.723Z,11.30
2022-08-19T19:37:39.746Z,13.00
2022-08-19T19:40:17.566Z,8.70
2022-08-19T19:42:55.666Z,11.20
2022-08-19T19:45:28.720Z,14.90
2022-08-19T19:48:01.658Z,11.80
2022-08-19T19:50:45.021Z,12.10
2022-08-19T19:54:12.869Z,10.50
2022-08-19T19:57:42.735Z,10.20
2022-08-19T20:00:53.193Z,11.10
2022-08-19T20:04:17.403Z,11.00
2022-08-19T20:08:24.014Z,11.40
2022-08-19T20:11:11.588Z,10.80
2022-08-19T20:13:40.945Z,10.60
2022-08-19T20:16:08.863Z,12.10
2022-08-19T20:18:35.969Z,11.00
2022-08-19T20:21:03.726Z,12.80
2022-08-19T20:23:31.286Z,11.00
2022-08-19T20:25:58.253Z,13.20
2022-08-19T20:28:26.023Z,16.60
2022-08-19T20:30:53.254Z,12.80
2022-08-19T20:33:21.888Z,11.60
2022-08-19T20:35:51.139Z,13.00
2022-08-19T20:38:18.083Z,11.50
2022-08-19T20:40:45.274Z,10.90
2022-08-19T20:43:14.216Z,13.10
2022-08-19T20:45:41.650Z,12.90
2022-08-19T20:48:12.567Z,15.10
2022-08-19T20:50:40.696Z,10.90
2022-08-19T20:53:18.621Z,14.20
2022-08-19T20:55:49.729Z,11.50
2022-08-19T20:58:27.633Z,11.70
2022-08-19T21:01:04.319Z,14.40
2022-08-19T21:04:00.092Z,13.00
2022-08-19T21:06:38.310Z,9.30
2022-08-19T21:09:06.181Z,13.30
2022-08-19T21:11:33.322Z,13.70
2022-08-19T21:14:00.758Z,11.90
2022-08-19T21:16:28.498Z,12.50
2022-08-19T21:18:55.649Z,18.00
2022-08-19T21:21:30.564Z,13.30
2022-08-19T21:23:57.963Z,13.50
2022-08-19T21:26:27.909Z,12.80
2022-08-19T21:28:55.546Z,12.20
2022-08-19T21:31:23.196Z,14.10
2022-08-19T21:33:50.638Z,12.10
2022-08-19T21:36:17.970Z,10.10
2022-08-19T21:38:45.041Z,18.80
2022-08-19T21:41:12.347Z,13.70
2022-08-19T21:43:45.056Z,11.90
2022-08-19T21:46:39.818Z,12.90
2022-08-19T21:49:31.862Z,12.30
2022-08-19T21:52:56.989Z,14.10
2022-08-19T21:56:35.706Z,12.30
2022-08-19T21:59:48.986Z,13.90
2022-08-19T22:02:31.179Z,12.90
2022-08-19T22:05:24.504Z,11.30
2022-08-19T22:08:28.990Z,15.70
2022-08-19T22:11:01.367Z,13.30
2022-08-19T22:13:32.406Z,11.00
2022-08-19T22:16:00.353Z,11.10
2022-08-19T22:18:41.635Z,12.20
2022-08-19T22:21:39.908Z,13.30
2022-08-19T22:24:59.804Z,14.80
2022-08-19T22:28:02.105Z,15.20
2022-08-19T22:30:48.891Z,12.70
2022-08-19T22:33:44.266Z,16.00
2022-08-19T22:36:49.452Z,12.60
2022-08-19T22:39:59.665Z,11.80
2022-08-19T22:43:15.671Z,13.90
2022-08-19T22:46:38.886Z,13.00
2022-08-19T22:49:50.458Z,13.40
2022-08-19T22:53:09.595Z,17.50
2022-08-19T22:56:26.542Z,12.80
2022-08-19T22:59:52.349Z,15.60
2022-08-19T23:03:26.112Z,17.50
2022-08-19T23:06:33.444Z,17.70
2022-08-19T23:09:30.422Z,15.50
2022-08-19T23:12:34.186Z,15.40
2022-08-19T23:16:12.847Z,17.40
2022-08-19T23:19:13.064Z,15.40
2022-08-19T23:22:03.498Z,14.60
2022-08-19T23:25:09.071Z,14.30
2022-08-19T23:28:45.737Z,13.90
2022-08-19T23:31:58.934Z,17.20
2022-08-19T23:34:58.143Z,18.60
2022-08-19T23:38:01.228Z,16.30
2022-08-19T23:41:03.897Z,17.20
2022-08-19T23:44:52.106Z,18.60
2022-08-19T23:48:33.052Z,18.10
2022-08-19T23:52:41.111Z,18.10
2022-08-19T23:56:11.935Z,16.50
2022-08-19T23:59:43.643Z,19.30
